Time;durP1;ratioP1;P1;durP2;ratioP2;P2;SDS_P1;SDS_P2;PMS_P1;PMS_P2;Temp;Humidity;BMP_temperature;BMP_pressure;BME280_temperature;BME280_humidity;BME280_pressure;Samples;Min_cycle;Max_cycle;Signal;HPM_P1;HPM_P2
2022/01/15 00:00:15;;;;;;;21.92;7.40;;;4.80;99.90;;;;;;5052150;28;20549;-48
2022/01/15 00:02:41;;;;;;;16.77;6.13;;;4.80;99.90;;;;;;5051562;28;20224;-48
2022/01/15 00:05:10;;;;;;;24.40;7.05;;;4.80;99.90;;;;;;5051431;28;20495;-48
2022/01/15 00:07:38;;;;;;;16.58;5.78;;;4.80;99.90;;;;;;5051264;28;20691;-49
2022/01/15 00:10:07;;;;;;;28.75;7.13;;;4.70;99.90;;;;;;5051432;28;20204;-49
2022/01/15 00:12:39;;;;;;;21.88;7.28;;;4.70;99.90;;;;;;5050997;28;20326;-49
2022/01/15 00:15:08;;;;;;;24.13;7.25;;;4.70;99.90;;;;;;5051305;28;20670;-49
2022/01/15 00:17:46;;;;;;;28.10;7.00;;;4.70;99.90;;;;;;5051349;28;20274;-49
2022/01/15 00:20:19;;;;;;;21.35;6.68;;;4.70;99.90;;;;;;5051755;28;20200;-50
2022/01/15 00:22:46;;;;;;;32.30;7.03;;;4.70;99.90;;;;;;5051270;28;20222;-49
2022/01/15 00:25:12;;;;;;;31.25;7.82;;;4.70;99.90;;;;;;5051428;28;20200;-49
2022/01/15 00:27:39;;;;;;;19.25;6.10;;;4.60;99.90;;;;;;5050839;28;20196;-49
2022/01/15 00:30:07;;;;;;;22.27;6.22;;;4.60;99.90;;;;;;5051455;28;20196;-49
2022/01/15 00:32:34;;;;;;;26.70;6.85;;;4.60;99.90;;;;;;5050987;28;20230;-49
2022/01/15 00:35:01;;;;;;;24.15;6.30;;;4.60;99.90;;;;;;5051553;28;20196;-49
2022/01/15 00:37:31;;;;;;;34.60;6.65;;;4.60;99.90;;;;;;5051106;28;20255;-49
2022/01/15 00:39:58;;;;;;;19.23;5.97;;;4.60;99.90;;;;;;5051076;28;20278;-50
2022/01/15 00:42:24;;;;;;;20.52;6.47;;;4.60;99.90;;;;;;5051722;28;20212;-49
2022/01/15 00:44:51;;;;;;;29.60;6.80;;;4.60;99.90;;;;;;5051918;28;20204;-48
2022/01/15 00:47:18;;;;;;;26.10;6.85;;;4.50;99.90;;;;;;5051767;28;20203;-49
2022/01/15 00:49:45;;;;;;;30.15;6.68;;;4.50;99.90;;;;;;5051645;28;20203;-49
2022/01/15 00:52:11;;;;;;;27.58;6.65;;;4.50;99.90;;;;;;5051579;28;20239;-49
2022/01/15 00:54:39;;;;;;;22.73;6.43;;;4.50;99.90;;;;;;5051732;28;20658;-48
2022/01/15 00:57:06;;;;;;;28.25;6.03;;;4.50;99.90;;;;;;5051796;28;20207;-49
2022/01/15 00:59:33;;;;;;;25.70;7.63;;;4.50;99.90;;;;;;5051667;28;20200;-48
2022/01/15 01:01:59;;;;;;;19.10;5.82;;;4.50;99.90;;;;;;5051656;28;20193;-49
2022/01/15 01:04:26;;;;;;;36.97;7.40;;;4.40;99.90;;;;;;5051732;28;20648;-50
2022/01/15 01:06:52;;;;;;;23.70;6.35;;;4.40;99.90;;;;;;5052882;28;20218;-49
2022/01/15 01:09:19;;;;;;;20.75;6.78;;;4.40;99.90;;;;;;5054732;28;20552;-49
2022/01/15 01:11:54;;;;;;;20.90;5.78;;;4.40;99.90;;;;;;5054481;28;20219;-49
2022/01/15 01:20:07;;;;;;;21.42;5.10;;;4.30;99.90;;;;;;5053737;28;20192;-49
2022/01/15 01:22:55;;;;;;;20.25;7.25;;;4.30;99.90;;;;;;5054183;28;20717;-49
2022/01/15 01:25:24;;;;;;;17.48;5.90;;;4.30;99.90;;;;;;5053760;28;20192;-49
2022/01/15 01:27:55;;;;;;;20.67;6.05;;;4.30;99.90;;;;;;5053471;28;20193;-49
2022/01/15 01:30:23;;;;;;;34.78;6.13;;;4.30;99.90;;;;;;5054018;28;20192;-48
2022/01/15 01:32:58;;;;;;;25.92;6.85;;;4.30;99.90;;;;;;5053806;28;20228;-49
2022/01/15 01:35:36;;;;;;;28.70;6.05;;;4.20;99.90;;;;;;5053875;28;20711;-49
2022/01/15 01:38:12;;;;;;;25.95;6.63;;;4.20;99.90;;;;;;5053502;28;20267;-49
2022/01/15 01:40:41;;;;;;;27.65;6.20;;;4.20;99.90;;;;;;5053711;28;20227;-49
2022/01/15 01:46:00;;;;;;;20.77;5.93;;;4.20;99.90;;;;;;5053338;28;20206;-49
2022/01/15 01:48:26;;;;;;;33.58;6.10;;;4.20;99.90;;;;;;5053337;28;20477;-49
2022/01/15 01:50:53;;;;;;;22.55;6.22;;;4.20;99.90;;;;;;5035668;28;20295;-49
2022/01/15 01:53:20;;;;;;;34.55;7.90;;;4.20;99.90;;;;;;5053318;28;20630;-50
2022/01/15 01:55:46;;;;;;;22.38;7.75;;;4.20;99.90;;;;;;5053771;28;20592;-49
2022/01/15 01:58:14;;;;;;;24.75;6.07;;;4.10;99.90;;;;;;5052988;28;20251;-49
2022/01/15 02:00:41;;;;;;;29.15;6.78;;;4.10;99.90;;;;;;5053298;28;20202;-49
2022/01/15 02:03:07;;;;;;;22.25;5.72;;;4.10;99.90;;;;;;5053180;28;20216;-50
2022/01/15 02:05:34;;;;;;;20.48;5.35;;;4.10;99.90;;;;;;5053326;28;20200;-49
2022/01/15 02:08:01;;;;;;;21.98;5.68;;;4.10;99.90;;;;;;5052976;28;20192;-49
2022/01/15 02:10:28;;;;;;;21.27;4.97;;;4.10;99.90;;;;;;5053205;28;20200;-49
2022/01/15 02:12:55;;;;;;;23.08;5.00;;;4.10;99.90;;;;;;5053118;28;20700;-49
2022/01/15 02:15:24;;;;;;;28.10;5.70;;;4.10;99.90;;;;;;5053068;28;20283;-49
2022/01/15 02:17:51;;;;;;;19.60;5.50;;;4.00;99.90;;;;;;5052332;28;20247;-49
2022/01/15 02:25:55;;;;;;;25.73;5.18;;;4.00;99.90;;;;;;5052981;28;20210;-48
2022/01/15 02:28:24;;;;;;;21.17;5.50;;;4.00;99.90;;;;;;5052863;28;20204;-49
2022/01/15 02:30:55;;;;;;;22.25;4.18;;;3.90;99.90;;;;;;5052731;28;20250;-49
2022/01/15 02:33:22;;;;;;;26.15;4.70;;;3.90;99.90;;;;;;5052784;28;20239;-48
2022/01/15 02:35:50;;;;;;;25.48;6.15;;;3.90;99.90;;;;;;5052751;28;20204;-49
2022/01/15 02:38:17;;;;;;;22.20;5.10;;;3.90;99.90;;;;;;5052300;28;20192;-49
2022/01/15 02:40:44;;;;;;;30.60;6.05;;;3.90;99.90;;;;;;5052687;28;20204;-49
2022/01/15 02:43:14;;;;;;;24.90;4.80;;;3.90;99.90;;;;;;5052683;28;20219;-49
2022/01/15 02:45:44;;;;;;;32.00;6.53;;;3.80;99.90;;;;;;5052900;28;20234;-49
2022/01/15 02:48:11;;;;;;;32.40;4.95;;;3.90;99.90;;;;;;5052141;28;20203;-49
2022/01/15 02:50:38;;;;;;;23.90;5.50;;;3.90;99.90;;;;;;5052419;28;20195;-49
2022/01/15 02:53:07;;;;;;;28.55;5.88;;;3.80;99.90;;;;;;5052227;28;20231;-49
2022/01/15 02:55:34;;;;;;;27.75;6.32;;;3.80;99.90;;;;;;5052490;28;20570;-49
2022/01/15 02:58:00;;;;;;;23.20;5.63;;;3.80;99.90;;;;;;5051960;28;20253;-50
2022/01/15 03:00:28;;;;;;;25.05;6.70;;;3.80;99.90;;;;;;5052262;28;20660;-49
2022/01/15 03:02:55;;;;;;;21.55;4.63;;;3.80;99.90;;;;;;5052165;28;20311;-49
2022/01/15 03:05:22;;;;;;;25.40;6.47;;;3.80;99.90;;;;;;5051992;28;20227;-49
2022/01/15 03:07:48;;;;;;;26.90;6.07;;;3.70;99.90;;;;;;5051769;28;20203;-49
2022/01/15 03:10:16;;;;;;;25.80;4.97;;;3.70;99.90;;;;;;5052080;28;20255;-49
2022/01/15 03:12:43;;;;;;;29.17;5.15;;;3.70;99.90;;;;;;5051870;28;20232;-49
2022/01/15 03:15:17;;;;;;;20.33;5.78;;;3.70;99.90;;;;;;5052033;28;20196;-49
2022/01/15 03:17:44;;;;;;;21.55;5.05;;;3.70;99.90;;;;;;5051630;28;20546;-50
2022/01/15 03:20:12;;;;;;;25.10;6.05;;;3.70;99.90;;;;;;5051899;28;20200;-49
2022/01/15 03:22:39;;;;;;;17.40;5.25;;;3.70;99.90;;;;;;5051580;28;20220;-47
2022/01/15 03:25:07;;;;;;;24.90;5.65;;;3.70;99.90;;;;;;5051672;28;20195;-48
2022/01/15 03:27:35;;;;;;;19.40;6.10;;;3.70;99.90;;;;;;5051806;28;20327;-48
2022/01/15 03:30:02;;;;;;;31.67;6.15;;;3.60;99.90;;;;;;5050885;28;20200;-48
2022/01/15 03:32:29;;;;;;;20.90;5.20;;;3.60;99.90;;;;;;5051356;28;20232;-48
2022/01/15 03:34:55;;;;;;;23.25;5.72;;;3.60;99.90;;;;;;5051624;28;20202;-48
2022/01/15 03:37:22;;;;;;;21.00;4.90;;;3.60;99.90;;;;;;5051839;28;20196;-47
2022/01/15 03:39:49;;;;;;;27.25;5.80;;;3.60;99.90;;;;;;5051323;28;20284;-47
2022/01/15 03:42:15;;;;;;;39.20;6.93;;;3.50;99.90;;;;;;5051594;28;20216;-48
2022/01/15 03:44:45;;;;;;;26.00;5.38;;;3.60;99.90;;;;;;5051588;28;20199;-48
2022/01/15 03:47:13;;;;;;;20.20;5.38;;;3.50;99.90;;;;;;5051627;28;20680;-48
2022/01/15 03:49:41;;;;;;;27.52;6.15;;;3.50;99.90;;;;;;5051062;28;20195;-48
2022/01/15 03:52:09;;;;;;;29.95;5.82;;;3.50;99.90;;;;;;5051248;28;20227;-49
2022/01/15 03:54:37;;;;;;;23.38;5.38;;;3.50;99.90;;;;;;5051579;28;20204;-48
2022/01/15 03:57:04;;;;;;;18.88;4.70;;;3.50;99.90;;;;;;5051439;28;20200;-49
2022/01/15 03:59:32;;;;;;;25.77;5.75;;;3.50;99.90;;;;;;5050987;28;20221;-49
2022/01/15 04:02:00;;;;;;;24.10;5.63;;;3.50;99.90;;;;;;5051338;28;20203;-48
2022/01/15 04:04:26;;;;;;;30.08;5.68;;;3.40;99.90;;;;;;5051416;28;20199;-49
2022/01/15 04:06:53;;;;;;;27.80;5.38;;;3.40;99.90;;;;;;5051332;28;20203;-48
2022/01/15 04:09:20;;;;;;;28.73;6.18;;;3.40;99.90;;;;;;5050930;28;20196;-49
2022/01/15 04:11:46;;;;;;;29.80;6.13;;;3.40;99.90;;;;;;5051247;28;20611;-48
2022/01/15 04:14:13;;;;;;;19.98;5.50;;;3.40;99.90;;;;;;5051225;28;20200;-48
2022/01/15 04:16:40;;;;;;;22.25;4.88;;;3.40;99.90;;;;;;5051190;28;20206;-48
2022/01/15 04:19:08;;;;;;;22.02;5.78;;;3.40;99.90;;;;;;5050829;28;20196;-48
2022/01/15 04:21:36;;;;;;;25.55;6.13;;;3.40;99.90;;;;;;5051179;28;20203;-48
2022/01/15 04:24:03;;;;;;;32.17;6.50;;;3.40;99.90;;;;;;5051191;28;20331;-48
2022/01/15 04:26:30;;;;;;;26.65;6.30;;;3.40;99.90;;;;;;5051059;28;20200;-48
2022/01/15 04:29:02;;;;;;;14.95;5.15;;;3.40;99.90;;;;;;5050726;28;20683;-48
2022/01/15 04:31:35;;;;;;;31.25;6.60;;;3.50;99.90;;;;;;5051097;28;20207;-47
2022/01/15 04:34:02;;;;;;;26.75;5.80;;;3.40;99.90;;;;;;5051045;28;20294;-48
2022/01/15 04:36:29;;;;;;;25.10;7.95;;;3.50;99.90;;;;;;5051077;28;20231;-48
2022/01/15 04:38:56;;;;;;;25.60;6.60;;;3.50;99.90;;;;;;5050416;28;20204;-48
2022/01/15 04:41:23;;;;;;;31.83;6.30;;;3.40;99.90;;;;;;5052556;28;20200;-48
2022/01/15 04:43:49;;;;;;;31.30;7.20;;;3.50;99.90;;;;;;5054656;28;20547;-48
2022/01/15 04:46:16;;;;;;;24.02;6.68;;;3.60;99.90;;;;;;5054790;28;20200;-48
2022/01/15 04:48:42;;;;;;;29.48;6.53;;;3.60;99.90;;;;;;5054665;28;20196;-47
2022/01/15 04:51:09;;;;;;;28.75;7.20;;;3.50;99.90;;;;;;5054642;28;20192;-48
2022/01/15 04:53:37;;;;;;;25.00;7.10;;;3.60;99.90;;;;;;5054856;28;20227;-47
2022/01/15 04:56:04;;;;;;;28.88;6.82;;;3.70;99.90;;;;;;5054571;28;20200;-46
2022/01/15 04:58:30;;;;;;;18.77;5.70;;;3.70;99.90;;;;;;5054240;28;20261;-46
2022/01/15 05:00:57;;;;;;;24.23;6.75;;;3.70;99.90;;;;;;5054452;28;20192;-48
2022/01/15 05:03:24;;;;;;;40.42;9.95;;;3.70;99.90;;;;;;5054366;28;20579;-47
2022/01/15 05:05:50;;;;;;;32.83;7.68;;;3.70;99.90;;;;;;5054536;28;20207;-47
2022/01/15 05:08:17;;;;;;;29.95;6.53;;;3.70;99.90;;;;;;5054160;28;20245;-46
2022/01/15 05:10:47;;;;;;;29.35;7.68;;;3.80;99.90;;;;;;5054423;28;20204;-48
2022/01/15 05:13:15;;;;;;;36.63;6.95;;;3.70;99.90;;;;;;5054296;28;20228;-47
2022/01/15 05:15:43;;;;;;;19.90;7.15;;;3.80;99.90;;;;;;5054359;28;20734;-48
2022/01/15 05:18:10;;;;;;;30.30;6.60;;;3.80;99.90;;;;;;5054044;28;20204;-48
2022/01/15 05:20:40;;;;;;;22.08;5.72;;;3.80;99.90;;;;;;5054117;28;20195;-48
2022/01/15 05:23:07;;;;;;;28.40;7.25;;;3.80;99.90;;;;;;5054060;28;20219;-48
2022/01/15 05:25:34;;;;;;;25.63;7.53;;;3.80;99.90;;;;;;5054195;28;20200;-48
2022/01/15 05:28:02;;;;;;;28.13;7.43;;;3.80;99.90;;;;;;5053787;28;20203;-48
2022/01/15 05:30:30;;;;;;;29.38;7.30;;;3.80;99.90;;;;;;5054042;28;20203;-48
2022/01/15 05:32:57;;;;;;;30.00;7.55;;;3.80;99.90;;;;;;5053775;28;20590;-48
2022/01/15 05:35:26;;;;;;;20.27;6.15;;;3.80;99.90;;;;;;5053746;28;20207;-48
2022/01/15 05:37:53;;;;;;;17.58;6.40;;;3.80;99.90;;;;;;5053587;28;20200;-48
2022/01/15 05:40:19;;;;;;;23.55;7.40;;;3.80;99.90;;;;;;5053918;28;20553;-48
2022/01/15 05:42:46;;;;;;;27.55;6.97;;;3.80;99.90;;;;;;5053795;28;20212;-46
2022/01/15 05:45:16;;;;;;;22.92;6.80;;;3.80;99.90;;;;;;5053745;28;20207;-48
2022/01/15 05:47:42;;;;;;;26.65;8.80;;;3.60;99.90;;;;;;5053369;28;20204;-49
2022/01/15 05:50:10;;;;;;;20.85;7.13;;;3.80;99.90;;;;;;5054010;28;20207;-48
2022/01/15 05:52:38;;;;;;;26.13;7.45;;;3.70;99.90;;;;;;5052709;28;20223;-47
2022/01/15 05:55:05;;;;;;;20.02;6.68;;;3.70;99.90;;;;;;5053790;28;20208;-48
2022/01/15 05:57:32;;;;;;;22.42;7.20;;;3.80;99.90;;;;;;5053414;28;20196;-48
2022/01/15 05:59:59;;;;;;;17.10;6.75;;;3.70;99.90;;;;;;5053363;28;20196;-48
2022/01/15 06:02:27;;;;;;;25.13;7.53;;;3.70;99.90;;;;;;5053328;28;20217;-47
2022/01/15 06:04:54;;;;;;;23.88;7.53;;;3.70;99.90;;;;;;5053597;28;20298;-47
2022/01/15 06:07:20;;;;;;;23.02;7.40;;;3.60;99.90;;;;;;5053384;28;20207;-47
2022/01/15 06:09:47;;;;;;;27.63;8.02;;;3.70;99.90;;;;;;5052960;28;20688;-50
2022/01/15 06:12:13;;;;;;;23.80;8.15;;;3.60;99.90;;;;;;5053259;28;20223;-48
2022/01/15 06:14:40;;;;;;;29.05;7.75;;;3.60;99.90;;;;;;5053146;28;20222;-47
2022/01/15 06:17:08;;;;;;;20.50;7.28;;;3.70;99.90;;;;;;5053592;28;20288;-48
2022/01/15 06:19:36;;;;;;;28.52;7.35;;;3.60;99.90;;;;;;5052650;28;20283;-47
2022/01/15 06:22:03;;;;;;;36.97;10.30;;;3.60;99.90;;;;;;5052930;28;20204;-47
2022/01/15 06:24:30;;;;;;;21.98;7.80;;;3.70;99.90;;;;;;5053003;28;20192;-48
2022/01/15 06:26:57;;;;;;;26.50;7.65;;;3.70;99.90;;;;;;5052951;28;20202;-48
2022/01/15 06:29:24;;;;;;;30.08;8.40;;;3.70;99.90;;;;;;5052502;28;20207;-48
2022/01/15 06:31:52;;;;;;;29.33;8.57;;;3.70;99.90;;;;;;5052795;28;20587;-47
2022/01/15 06:34:19;;;;;;;21.33;7.85;;;3.70;99.90;;;;;;5052725;28;20259;-46
2022/01/15 06:36:47;;;;;;;27.95;6.97;;;3.60;99.90;;;;;;5052642;28;20211;-48
2022/01/15 06:39:14;;;;;;;22.52;7.20;;;3.70;99.90;;;;;;5052482;28;20204;-47
2022/01/15 06:41:41;;;;;;;31.38;8.77;;;3.80;99.90;;;;;;5052541;28;20204;-46
2022/01/15 06:44:07;;;;;;;27.92;6.70;;;3.70;99.90;;;;;;5052418;28;20220;-47
2022/01/15 06:46:34;;;;;;;23.33;7.30;;;3.70;99.90;;;;;;5052486;28;20330;-48
2022/01/15 06:49:00;;;;;;;32.35;9.15;;;3.70;99.90;;;;;;5052029;28;20196;-48
2022/01/15 06:51:27;;;;;;;27.55;9.30;;;3.70;99.90;;;;;;5052588;28;20200;-48
2022/01/15 06:53:55;;;;;;;30.63;9.02;;;3.70;99.90;;;;;;5052495;28;20474;-48
2022/01/15 06:56:21;;;;;;;24.65;7.88;;;3.70;99.90;;;;;;5052323;28;20192;-48
2022/01/15 06:58:48;;;;;;;30.90;9.00;;;3.70;99.90;;;;;;5051929;28;20210;-48
2022/01/15 07:01:15;;;;;;;21.98;8.05;;;3.60;99.90;;;;;;5052317;28;20208;-48
2022/01/15 07:03:41;;;;;;;25.33;7.82;;;3.60;99.90;;;;;;5051911;28;20227;-47
2022/01/15 07:06:08;;;;;;;23.85;7.93;;;3.50;99.90;;;;;;5051532;28;20196;-48
2022/01/15 07:08:34;;;;;;;23.20;8.25;;;3.50;99.90;;;;;;5051764;28;20199;-48
2022/01/15 07:11:02;;;;;;;37.08;8.30;;;3.50;99.90;;;;;;5052148;28;20210;-47
2022/01/15 07:13:30;;;;;;;30.20;8.52;;;3.50;99.90;;;;;;5034037;28;20273;-48
2022/01/15 07:15:56;;;;;;;27.60;7.63;;;3.60;99.90;;;;;;5052074;28;20196;-48
2022/01/15 07:18:23;;;;;;;33.17;9.02;;;3.60;99.90;;;;;;5051686;28;20554;-49
2022/01/15 07:20:51;;;;;;;29.33;9.48;;;3.60;99.90;;;;;;5052148;28;20203;-47
2022/01/15 07:23:17;;;;;;;21.85;9.00;;;3.60;99.90;;;;;;5052148;28;20290;-48
2022/01/15 07:25:45;;;;;;;33.20;8.30;;;3.70;99.90;;;;;;5051793;28;20195;-48
2022/01/15 07:28:13;;;;;;;27.52;7.70;;;3.70;99.90;;;;;;5051466;28;20196;-48
2022/01/15 07:30:39;;;;;;;24.30;7.72;;;3.70;99.90;;;;;;5051832;28;20320;-48
2022/01/15 07:33:06;;;;;;;28.50;7.93;;;3.70;99.90;;;;;;5051545;28;20222;-48
2022/01/15 07:35:32;;;;;;;39.47;11.82;;;3.70;99.90;;;;;;5051595;28;20222;-47
2022/01/15 07:37:59;;;;;;;22.67;7.50;;;3.80;99.90;;;;;;5051363;28;20728;-48
2022/01/15 07:40:26;;;;;;;32.53;9.38;;;3.70;99.90;;;;;;5051493;28;20200;-47
2022/01/15 07:42:53;;;;;;;16.08;6.60;;;3.70;99.90;;;;;;5051504;28;20594;-48
2022/01/15 07:45:21;;;;;;;24.88;7.43;;;3.70;99.90;;;;;;5051274;28;20195;-48
2022/01/15 07:47:47;;;;;;;23.67;7.40;;;3.80;99.90;;;;;;5050978;28;20676;-47
2022/01/15 07:50:17;;;;;;;23.98;7.05;;;3.70;99.90;;;;;;5051453;28;20215;-47
2022/01/15 07:52:44;;;;;;;18.50;6.47;;;3.70;99.90;;;;;;5051299;28;20235;-48
2022/01/15 07:55:11;;;;;;;24.85;8.45;;;3.60;99.90;;;;;;5051533;28;20577;-48
2022/01/15 07:57:37;;;;;;;23.10;8.23;;;3.60;99.90;;;;;;5051279;28;20206;-49
2022/01/15 08:00:05;;;;;;;15.68;7.18;;;3.60;99.90;;;;;;5051604;28;20192;-48
2022/01/15 08:02:40;;;;;;;17.83;8.27;;;3.60;99.90;;;;;;5051187;28;20696;-48
2022/01/15 08:05:08;;;;;;;22.58;8.45;;;3.70;99.90;;;;;;5051173;28;20559;-48
2022/01/15 08:07:35;;;;;;;23.23;7.82;;;3.70;99.90;;;;;;5051068;28;20232;-48
2022/01/15 08:10:03;;;;;;;23.25;7.70;;;3.70;99.90;;;;;;5051005;28;20608;-49
2022/01/15 08:12:30;;;;;;;25.83;7.97;;;3.60;99.90;;;;;;5051006;28;20216;-48
2022/01/15 08:14:57;;;;;;;23.27;8.07;;;3.70;99.90;;;;;;5050934;28;20224;-47
2022/01/15 08:17:23;;;;;;;44.88;22.83;;;3.60;99.90;;;;;;5054240;28;20199;-47
2022/01/15 08:19:51;;;;;;;29.35;9.82;;;3.80;99.90;;;;;;5054946;28;20199;-49
2022/01/15 08:22:18;;;;;;;23.50;9.02;;;3.70;99.90;;;;;;5054943;28;20224;-48
2022/01/15 08:24:44;;;;;;;29.50;9.23;;;3.80;99.90;;;;;;5054870;28;20188;-48
2022/01/15 08:27:11;;;;;;;25.90;8.65;;;3.80;99.90;;;;;;5054975;28;20250;-48
2022/01/15 08:29:37;;;;;;;28.23;8.40;;;3.80;99.90;;;;;;5054656;28;20203;-48
2022/01/15 08:32:05;;;;;;;24.63;7.93;;;3.80;99.90;;;;;;5054899;28;20199;-49
2022/01/15 08:34:31;;;;;;;35.00;8.85;;;3.80;99.90;;;;;;5054701;28;20230;-48
2022/01/15 08:36:59;;;;;;;26.45;9.68;;;3.90;99.90;;;;;;5054473;28;20521;-47
2022/01/15 08:39:26;;;;;;;22.90;8.40;;;3.90;99.90;;;;;;5054432;28;20210;-47
2022/01/15 08:41:52;;;;;;;28.60;10.18;;;3.90;99.90;;;;;;5054518;28;20207;-47
2022/01/15 08:44:21;;;;;;;23.10;8.88;;;3.80;99.90;;;;;;5036481;28;20200;-48
2022/01/15 08:46:47;;;;;;;28.98;9.50;;;3.90;99.90;;;;;;5054451;28;20204;-48
2022/01/15 08:49:14;;;;;;;22.00;9.45;;;3.80;99.90;;;;;;5054200;28;20196;-47
2022/01/15 08:51:41;;;;;;;24.85;9.82;;;3.80;99.90;;;;;;5054559;28;20192;-49
2022/01/15 08:54:09;;;;;;;20.55;8.05;;;3.80;99.90;;;;;;5054365;28;20234;-48
2022/01/15 08:56:35;;;;;;;19.70;7.70;;;3.80;99.90;;;;;;5054396;28;20211;-48
2022/01/15 08:59:03;;;;;;;18.58;7.85;;;3.80;99.90;;;;;;5054230;28;20308;-48
2022/01/15 09:01:30;;;;;;;27.55;8.48;;;3.80;99.90;;;;;;5054212;28;20197;-48
2022/01/15 09:03:57;;;;;;;25.17;9.60;;;3.80;99.90;;;;;;5054329;28;20216;-48
2022/01/15 09:06:23;;;;;;;20.48;7.60;;;3.80;99.90;;;;;;5054280;28;20211;-48
2022/01/15 09:08:50;;;;;;;23.25;9.32;;;3.80;99.90;;;;;;5053891;28;20195;-47
2022/01/15 09:11:18;;;;;;;22.38;9.10;;;3.80;99.90;;;;;;5053974;28;20196;-47
2022/01/15 09:13:45;;;;;;;24.38;10.20;;;3.70;99.90;;;;;;5053840;28;20219;-48
2022/01/15 09:16:12;;;;;;;26.70;9.40;;;3.90;99.90;;;;;;5053868;28;20700;-47
2022/01/15 09:18:38;;;;;;;19.65;7.43;;;3.80;99.90;;;;;;5053955;28;20211;-48
2022/01/15 09:21:05;;;;;;;18.08;7.93;;;3.80;99.90;;;;;;5053952;28;20196;-48
2022/01/15 09:23:32;;;;;;;23.88;7.78;;;3.90;99.90;;;;;;5053815;28;20227;-48
2022/01/15 09:25:59;;;;;;;22.65;8.65;;;3.80;99.90;;;;;;5053940;28;20207;-48
2022/01/15 09:31:13;;;;;;;21.58;9.90;;;3.90;99.90;;;;;;5036003;28;20546;-48
2022/01/15 09:33:40;;;;;;;19.45;8.88;;;4.00;99.90;;;;;;5053530;28;20681;-47
2022/01/15 09:36:06;;;;;;;19.73;9.45;;;3.90;99.90;;;;;;5053647;28;20196;-48
2022/01/15 09:38:33;;;;;;;21.40;9.43;;;4.00;99.90;;;;;;5053320;28;20192;-48
2022/01/15 09:41:00;;;;;;;20.55;8.27;;;4.00;99.90;;;;;;5053522;28;20196;-48
2022/01/15 09:43:28;;;;;;;23.38;9.63;;;4.00;99.90;;;;;;5053595;28;20220;-48
2022/01/15 09:45:58;;;;;;;18.70;8.30;;;4.00;99.90;;;;;;5053222;28;20188;-47
2022/01/15 09:48:27;;;;;;;22.60;10.43;;;4.10;99.90;;;;;;5052869;28;20211;-47
2022/01/15 09:50:53;;;;;;;23.95;8.73;;;4.00;99.90;;;;;;5053236;28;20192;-48
2022/01/15 09:53:21;;;;;;;23.83;8.95;;;4.10;99.90;;;;;;5052905;28;20606;-48
2022/01/15 09:55:48;;;;;;;26.60;8.93;;;4.10;99.90;;;;;;5035152;28;20214;-48
2022/01/15 09:58:15;;;;;;;25.27;10.02;;;4.20;99.90;;;;;;5052927;28;20204;-49
2022/01/15 10:00:43;;;;;;;23.70;8.75;;;4.30;99.90;;;;;;5053178;28;20192;-48
2022/01/15 10:03:09;;;;;;;28.42;8.35;;;4.30;99.90;;;;;;5053151;28;20219;-48
2022/01/15 10:05:36;;;;;;;21.08;8.73;;;4.30;99.90;;;;;;5053201;28;20199;-47
2022/01/15 10:08:05;;;;;;;21.30;10.13;;;4.30;99.90;;;;;;5052729;28;20549;-48
2022/01/15 10:10:33;;;;;;;21.27;8.90;;;4.30;99.90;;;;;;5052911;28;20208;-48
2022/01/15 10:13:13;;;;;;;18.15;8.05;;;4.30;99.90;;;;;;5052815;28;20564;-48
2022/01/15 10:15:40;;;;;;;19.42;9.15;;;4.40;99.90;;;;;;5052716;28;20830;-47
2022/01/15 10:18:23;;;;;;;21.42;8.52;;;4.40;99.90;;;;;;5052271;28;20290;-48
2022/01/15 10:20:51;;;;;;;30.42;9.57;;;4.50;99.90;;;;;;5052718;28;20215;-48
2022/01/15 10:23:19;;;;;;;19.52;8.07;;;4.50;99.90;;;;;;5052789;28;20700;-48
2022/01/15 10:26:07;;;;;;;20.00;9.43;;;4.40;99.90;;;;;;5052572;28;20275;-48
2022/01/15 10:28:52;;;;;;;29.95;12.15;;;4.50;99.90;;;;;;5052112;28;20595;-48
2022/01/15 10:31:20;;;;;;;24.33;13.75;;;4.70;99.90;;;;;;5052237;28;20208;-47
2022/01/15 10:33:48;;;;;;;23.80;11.75;;;4.80;99.90;;;;;;5052116;28;20223;-47
2022/01/15 10:36:22;;;;;;;27.30;11.52;;;4.80;99.90;;;;;;5051980;28;20200;-47
2022/01/15 10:38:49;;;;;;;28.20;13.57;;;4.90;99.90;;;;;;5052042;28;20202;-47
2022/01/15 10:41:35;;;;;;;30.95;17.10;;;4.90;99.90;;;;;;5051745;28;20196;-49
2022/01/15 10:44:22;;;;;;;27.08;14.82;;;5.00;99.90;;;;;;5052289;28;20219;-48
2022/01/15 10:46:49;;;;;;;29.45;11.50;;;5.00;99.90;;;;;;5052219;28;20196;-47
2022/01/15 10:49:25;;;;;;;27.30;12.07;;;5.00;99.90;;;;;;5051953;28;20218;-48
2022/01/15 10:52:09;;;;;;;27.15;10.52;;;5.00;99.90;;;;;;5051500;28;20655;-48
2022/01/15 10:54:49;;;;;;;20.33;9.77;;;5.00;99.90;;;;;;5052218;28;20623;-50
2022/01/15 10:57:16;;;;;;;23.73;10.80;;;4.90;99.90;;;;;;5052061;28;20602;-50
2022/01/15 11:00:10;;;;;;;26.30;14.73;;;4.80;99.90;;;;;;5051350;28;20204;-50
2022/01/15 11:02:37;;;;;;;21.60;11.32;;;4.70;99.90;;;;;;5048027;28;20298;-50
2022/01/15 11:05:21;;;;;;;24.75;14.05;;;4.70;99.90;;;;;;5051496;28;20564;-50
2022/01/15 11:07:48;;;;;;;29.02;12.70;;;4.70;99.90;;;;;;5051469;28;20538;-51
2022/01/15 11:10:15;;;;;;;26.83;13.75;;;4.70;99.90;;;;;;5051310;28;20216;-51
2022/01/15 11:12:42;;;;;;;32.17;14.13;;;4.70;99.90;;;;;;5051243;28;20224;-51
2022/01/15 11:15:09;;;;;;;30.63;13.98;;;4.70;99.90;;;;;;5051567;28;20234;-51
2022/01/15 11:17:37;;;;;;;36.45;14.75;;;4.80;99.90;;;;;;5051262;28;20201;-48
2022/01/15 11:20:06;;;;;;;29.20;13.77;;;4.80;99.90;;;;;;5051353;28;20578;-49
2022/01/15 11:22:35;;;;;;;31.47;13.13;;;4.90;99.90;;;;;;5051401;28;20228;-49
2022/01/15 11:25:02;;;;;;;30.45;15.85;;;4.90;99.90;;;;;;5051260;28;20430;-49
2022/01/15 11:27:29;;;;;;;37.83;14.80;;;5.00;99.90;;;;;;5050804;28;20294;-50
2022/01/15 11:29:58;;;;;;;31.40;14.10;;;5.00;99.90;;;;;;5033233;28;20490;-49
2022/01/15 11:32:26;;;;;;;28.60;15.07;;;5.00;99.90;;;;;;5050960;28;20435;-49
2022/01/15 11:35:00;;;;;;;43.05;17.02;;;5.00;99.90;;;;;;5051142;28;20281;-50
2022/01/15 11:37:39;;;;;;;39.53;16.35;;;5.00;99.90;;;;;;5051420;28;20269;-49
2022/01/15 11:40:38;;;;;;;48.50;20.05;;;5.00;99.90;;;;;;5051080;28;20200;-50
2022/01/15 11:43:41;;;;;;;37.90;16.60;;;5.00;99.90;;;;;;5050936;28;20270;-50
2022/01/15 11:46:26;;;;;;;40.28;17.52;;;5.10;99.90;;;;;;5050360;28;20699;-52
2022/01/15 11:48:53;;;;;;;30.95;15.40;;;5.10;99.90;;;;;;5050770;28;20196;-50
2022/01/15 11:51:28;;;;;;;42.88;17.88;;;5.00;99.90;;;;;;5050283;28;20203;-49
2022/01/15 11:53:58;;;;;;;32.03;14.32;;;5.10;99.90;;;;;;5050991;28;20723;-49
2022/01/15 11:56:27;;;;;;;31.70;16.70;;;5.20;99.90;;;;;;5050805;28;20214;-50
2022/01/15 11:58:56;;;;;;;39.25;17.08;;;5.20;99.90;;;;;;5032297;28;20439;-50
2022/01/15 12:01:39;;;;;;;41.55;15.50;;;5.20;99.90;;;;;;5050303;28;20215;-50
2022/01/15 12:04:26;;;;;;;30.90;17.13;;;5.30;99.90;;;;;;5051147;28;20219;-51
2022/01/15 12:07:20;;;;;;;30.57;14.30;;;5.40;99.90;;;;;;5049909;28;20330;-52
2022/01/15 12:09:49;;;;;;;40.60;15.77;;;5.40;99.90;;;;;;5050606;28;20466;-51
2022/01/15 12:12:44;;;;;;;35.15;16.77;;;5.40;99.90;;;;;;5050446;28;20437;-51
2022/01/15 12:15:14;;;;;;;29.42;17.65;;;5.40;99.90;;;;;;5050304;28;20692;-51
2022/01/15 12:17:42;;;;;;;33.40;16.60;;;5.40;99.90;;;;;;5049855;28;20216;-50
2022/01/15 12:20:32;;;;;;;33.03;16.90;;;5.40;99.90;;;;;;5050315;28;20192;-51
2022/01/15 12:23:00;;;;;;;33.42;16.52;;;5.40;99.90;;;;;;5050353;28;20220;-50
2022/01/15 12:25:32;;;;;;;26.63;14.97;;;5.40;99.90;;;;;;5050348;28;20189;-51
2022/01/15 12:28:02;;;;;;;32.17;14.30;;;5.50;99.90;;;;;;5049869;28;20878;-51
2022/01/15 12:30:33;;;;;;;32.03;14.77;;;5.50;99.90;;;;;;5050633;28;20279;-51
2022/01/15 12:33:01;;;;;;;31.73;14.70;;;5.50;99.90;;;;;;5032699;28;20471;-51
2022/01/15 12:35:30;;;;;;;26.93;12.33;;;5.40;99.90;;;;;;5050443;28;20947;-50
2022/01/15 12:38:00;;;;;;;31.70;12.60;;;5.40;99.90;;;;;;5049934;28;20409;-50
2022/01/15 12:40:34;;;;;;;25.80;11.70;;;5.40;99.90;;;;;;5050307;28;20428;-50
2022/01/15 12:43:03;;;;;;;24.45;12.40;;;5.40;99.90;;;;;;5032305;28;21005;-51
2022/01/15 12:45:30;;;;;;;45.37;13.37;;;5.40;99.90;;;;;;5032390;28;20205;-51
2022/01/15 12:47:57;;;;;;;25.77;10.90;;;5.40;99.90;;;;;;5050024;28;20444;-51
2022/01/15 12:50:24;;;;;;;18.83;9.60;;;5.30;99.90;;;;;;5050263;28;20204;-50
2022/01/15 12:53:00;;;;;;;27.80;9.80;;;5.30;99.90;;;;;;5049750;28;20477;-51
2022/01/15 12:55:29;;;;;;;36.35;10.77;;;5.20;99.90;;;;;;5050347;28;20639;-51
2022/01/15 12:57:57;;;;;;;29.77;12.90;;;5.10;99.90;;;;;;5049644;28;20573;-50
2022/01/15 13:00:25;;;;;;;25.83;11.27;;;5.10;99.90;;;;;;5050191;28;20196;-50
2022/01/15 13:02:57;;;;;;;30.70;9.95;;;5.00;99.90;;;;;;5052752;28;20220;-50
2022/01/15 13:05:26;;;;;;;20.42;10.13;;;5.00;99.90;;;;;;5053912;28;20196;-49
2022/01/15 13:07:59;;;;;;;29.63;11.75;;;5.00;99.90;;;;;;5053854;28;20261;-49
2022/01/15 13:10:52;;;;;;;25.38;11.85;;;4.90;99.90;;;;;;5035733;28;20215;-50